Adelaide, California
Current Conditions -  °F | °C
As of 2:53 AM on Wednesday 22 Oct 2014 (Local Time) from KPRB Reporting Station
Clear Clear  
Wind Chill: 48°   Ceiling: Unl
Heat Index: 48°   Visibility: 10mi
Dew Point: 41°   Wind: 0mph
Humidity: 77%   Direction: NA
Pressure: 30.03"   Gusts: NA
Location:  35.6618°N, 120.707°W
Report Text: KPRB 220953Z AUTO 00000KT 10SM CLR 09/05 A3003 RMK AO2 SLP164 T00890050 TSNO
Loading
Personal Weather Stations






























Interactive Weather Map
Tropical Storm Tracking
New forecast layout! Learn more

10-Day Weather Forecast

Advertisements
Track Severe Weather on mobile